Time;durP1;ratioP1;P1;durP2;ratioP2;P2;SDS_P1;SDS_P2;PMS_P1;PMS_P2;Temp;Humidity;BMP_temperature;BMP_pressure;BME280_temperature;BME280_humidity;BME280_pressure;Samples;Min_cycle;Max_cycle;Signal;HPM_P1;HPM_P2
2024/03/18 00:00:17;;;;;;;6.10;4.27;;;;;;;11.65;72.95;96332.53;4989673;28;20181;-71
2024/03/18 00:02:45;;;;;;;8.60;5.70;;;;;;;11.66;71.92;96328.97;4990155;28;20181;-71
2024/03/18 00:05:12;;;;;;;5.40;4.03;;;;;;;11.67;72.59;96327.22;4990285;28;20419;-72
2024/03/18 00:07:37;;;;;;;7.10;4.50;;;;;;;11.61;72.66;96323.09;4990271;28;20435;-71
2024/03/18 00:10:04;;;;;;;5.33;4.80;;;;;;;11.63;71.67;96330.91;4990637;28;20506;-71
2024/03/18 00:12:29;;;;;;;5.03;3.80;;;;;;;11.66;71.53;96321.09;4990291;28;20200;-71
2024/03/18 00:14:55;;;;;;;5.20;4.67;;;;;;;11.66;72.52;96317.59;4990481;28;20447;-71
2024/03/18 00:17:20;;;;;;;4.90;4.17;;;;;;;11.59;72.10;96318.84;4990044;28;20742;-71
2024/03/18 00:19:46;;;;;;;5.00;4.50;;;;;;;11.63;72.18;96326.50;4990202;28;20227;-70
2024/03/18 00:22:11;;;;;;;5.50;4.60;;;;;;;11.67;72.46;96319.34;4990230;28;20695;-71
2024/03/18 00:24:37;;;;;;;6.13;4.17;;;;;;;11.62;72.71;96314.31;4990610;28;20223;-71
2024/03/18 00:27:03;;;;;;;5.33;3.70;;;;;;;11.63;72.71;96315.13;4989162;28;20204;-71
2024/03/18 00:29:28;;;;;;;6.20;4.53;;;;;;;11.65;73.13;96311.50;4990449;28;20251;-70
2024/03/18 00:31:54;;;;;;;12.87;5.00;;;;;;;11.58;73.38;96310.09;4989974;28;20191;-70
2024/03/18 00:34:20;;;;;;;5.10;4.57;;;;;;;11.61;73.73;96311.72;4989893;28;20643;-72
2024/03/18 00:36:46;;;;;;;10.00;4.73;;;;;;;11.59;73.92;96308.31;4990157;28;20295;-70
2024/03/18 00:39:12;;;;;;;6.90;4.27;;;;;;;11.48;74.20;96302.75;4990095;28;20654;-71
2024/03/18 00:41:46;;;;;;;7.60;4.47;;;;;;;11.54;73.89;96297.19;4989799;28;20428;-71
2024/03/18 00:44:16;;;;;;;8.27;4.80;;;;;;;11.34;74.64;96290.28;4989533;28;20253;-70
2024/03/18 00:46:46;;;;;;;6.37;4.77;;;;;;;11.49;73.91;96291.31;4989509;28;20998;-71
2024/03/18 00:49:12;;;;;;;10.00;4.67;;;;;;;11.40;74.39;96284.72;4989870;28;20447;-71
2024/03/18 00:51:38;;;;;;;5.43;4.90;;;;;;;11.34;74.79;96282.38;4989467;28;20439;-71
2024/03/18 00:54:04;;;;;;;9.07;5.17;;;;;;;11.32;75.46;96281.66;4989200;28;20483;-70
2024/03/18 00:56:31;;;;;;;6.67;5.37;;;;;;;11.37;75.13;96282.25;4989196;28;20177;-71
2024/03/18 00:58:56;;;;;;;6.80;5.10;;;;;;;11.36;75.80;96275.28;4989276;28;20498;-70
2024/03/18 01:01:22;;;;;;;8.13;5.10;;;;;;;11.34;75.80;96274.50;4989001;28;20424;-71
2024/03/18 01:03:48;;;;;;;9.40;6.40;;;;;;;11.37;75.54;96269.13;4989066;28;20176;-70
2024/03/18 01:06:14;;;;;;;8.20;5.73;;;;;;;11.36;75.62;96270.91;4989544;28;20605;-70
2024/03/18 01:08:39;;;;;;;7.73;6.23;;;;;;;11.44;75.67;96271.38;4989862;28;20668;-70
2024/03/18 01:11:05;;;;;;;5.70;5.03;;;;;;;11.48;74.74;96273.84;4988752;28;20180;-72
2024/03/18 01:13:35;;;;;;;7.80;5.40;;;;;;;11.38;75.27;96265.56;4988986;28;20255;-70
2024/03/18 01:16:00;;;;;;;8.43;5.77;;;;;;;11.35;75.04;96266.56;4989116;28;20172;-70
2024/03/18 01:18:27;;;;;;;7.90;5.37;;;;;;;11.37;75.33;96263.88;4989661;28;20452;-70
2024/03/18 01:20:53;;;;;;;7.13;6.40;;;;;;;11.45;75.05;96259.06;4989718;28;20597;-71
2024/03/18 01:23:19;;;;;;;8.77;7.40;;;;;;;11.35;75.28;96263.09;4989573;28;20436;-71
2024/03/18 01:25:44;;;;;;;10.37;6.30;;;;;;;11.37;75.47;96259.47;4989647;28;20414;-71
2024/03/18 01:28:10;;;;;;;9.43;5.97;;;;;;;11.19;76.07;96261.19;4989686;28;20800;-71
2024/03/18 01:30:35;;;;;;;7.90;5.97;;;;;;;11.31;75.75;96257.13;4989697;28;20173;-72
2024/03/18 01:33:00;;;;;;;11.30;6.27;;;;;;;11.38;75.09;96245.38;4988800;28;20565;-71
2024/03/18 01:35:26;;;;;;;8.53;6.77;;;;;;;11.33;75.80;96242.13;4988817;28;20177;-71
2024/03/18 01:37:51;;;;;;;6.53;5.90;;;;;;;11.33;74.92;96238.66;4988556;28;20205;-71
2024/03/18 01:40:17;;;;;;;8.70;6.73;;;;;;;11.32;75.40;96221.22;4988802;28;20173;-72
2024/03/18 01:42:44;;;;;;;6.50;5.67;;;;;;;11.38;75.73;96224.38;4988447;28;20184;-71
2024/03/18 01:45:10;;;;;;;6.50;5.47;;;;;;;11.34;75.54;96216.72;4988586;28;20173;-71
2024/03/18 01:47:37;;;;;;;10.23;5.83;;;;;;;11.34;75.71;96214.97;4988622;28;20464;-70
2024/03/18 01:50:02;;;;;;;7.13;6.00;;;;;;;11.32;75.78;96213.34;4988390;28;20424;-70
2024/03/18 01:52:29;;;;;;;10.13;5.80;;;;;;;11.41;75.52;96212.88;4988472;28;20413;-71
2024/03/18 01:54:56;;;;;;;7.23;5.60;;;;;;;11.50;75.14;96216.81;4988448;28;20187;-71
2024/03/18 01:57:24;;;;;;;9.97;6.20;;;;;;;11.48;75.69;96213.41;4988051;28;21066;-72
2024/03/18 01:59:49;;;;;;;8.73;6.63;;;;;;;11.49;75.70;96217.75;4988204;28;20429;-71
2024/03/18 02:02:15;;;;;;;6.50;5.90;;;;;;;11.32;75.43;96211.56;4987993;28;20916;-70
2024/03/18 02:04:40;;;;;;;18.60;7.27;;;;;;;11.35;75.46;96207.91;4988652;28;20184;-72
2024/03/18 02:07:20;;;;;;;6.30;5.67;;;;;;;11.37;75.31;96204.28;4988518;28;20530;-71
2024/03/18 02:09:46;;;;;;;8.10;6.03;;;;;;;11.37;75.70;96211.31;4988442;28;20172;-71
2024/03/18 02:12:11;;;;;;;8.80;6.20;;;;;;;11.32;75.79;96205.47;4988250;28;20419;-70
2024/03/18 02:14:37;;;;;;;11.30;6.53;;;;;;;11.36;76.34;96209.59;4988312;28;20180;-71
2024/03/18 02:17:04;;;;;;;6.80;6.10;;;;;;;11.33;75.49;96205.34;4988385;28;20204;-70
2024/03/18 02:19:29;;;;;;;9.83;6.60;;;;;;;11.29;76.39;96205.59;4988582;28;20173;-69
2024/03/18 02:21:55;;;;;;;10.30;7.27;;;;;;;11.30;76.39;96204.69;4987078;28;20408;-70
2024/03/18 02:24:21;;;;;;;7.43;5.80;;;;;;;11.31;75.72;96201.97;4987935;28;20587;-71
2024/03/18 02:26:47;;;;;;;7.20;6.50;;;;;;;11.47;75.71;96193.31;4987665;28;20343;-70
2024/03/18 02:29:12;;;;;;;9.07;7.17;;;;;;;11.33;76.27;96199.25;4987561;28;20594;-70
2024/03/18 02:31:37;;;;;;;8.93;6.63;;;;;;;11.25;76.53;96197.03;4987949;28;20207;-71
2024/03/18 02:34:03;;;;;;;7.50;6.70;;;;;;;11.25;76.45;96198.81;4987887;28;20169;-71
2024/03/18 02:36:28;;;;;;;8.30;6.67;;;;;;;11.26;75.95;96195.25;4988071;28;20165;-70
2024/03/18 02:38:53;;;;;;;9.00;6.20;;;;;;;11.30;76.76;96194.16;4988926;28;20197;-70
2024/03/18 02:41:19;;;;;;;8.23;6.20;;;;;;;11.28;76.65;96182.88;4989033;28;20691;-71
2024/03/18 02:43:44;;;;;;;10.77;7.40;;;;;;;11.30;76.02;96181.88;4987887;28;20660;-71
2024/03/18 02:46:10;;;;;;;6.93;6.27;;;;;;;11.24;76.21;96176.91;4987747;28;20192;-70
2024/03/18 02:48:35;;;;;;;11.30;7.07;;;;;;;11.27;76.57;96168.03;4987856;28;20287;-72
2024/03/18 02:51:05;;;;;;;7.30;6.40;;;;;;;11.22;76.38;96163.03;4988845;28;20500;-71
2024/03/18 02:53:31;;;;;;;7.07;6.23;;;;;;;11.31;76.11;96159.91;4988812;28;20173;-73
2024/03/18 02:55:57;;;;;;;9.73;7.17;;;;;;;11.32;76.09;96150.28;4989033;28;20423;-71
2024/03/18 02:58:22;;;;;;;11.13;7.33;;;;;;;11.18;76.77;96154.44;4988387;28;20444;-70
2024/03/18 03:00:47;;;;;;;16.40;7.77;;;;;;;11.17;76.78;96158.03;4986141;28;20227;-72
2024/03/18 03:03:13;;;;;;;9.10;6.90;;;;;;;11.23;76.45;96149.81;4987451;28;20586;-71
2024/03/18 03:05:39;;;;;;;9.43;6.43;;;;;;;11.22;77.03;96155.16;4987411;28;20216;-71
2024/03/18 03:08:05;;;;;;;10.03;6.10;;;;;;;11.21;76.51;96154.28;4987223;28;20254;-71
2024/03/18 03:10:30;;;;;;;9.57;7.50;;;;;;;11.11;77.33;96157.47;4986931;28;20475;-71
2024/03/18 03:12:55;;;;;;;7.90;6.40;;;;;;;11.18;76.90;96153.59;4986797;28;20188;-71
2024/03/18 03:15:22;;;;;;;8.27;6.40;;;;;;;11.19;76.92;96150.03;4987253;28;20864;-71
2024/03/18 03:17:49;;;;;;;8.97;7.77;;;;;;;11.15;76.59;96144.09;4986783;28;20205;-70
2024/03/18 03:20:18;;;;;;;11.10;7.70;;;;;;;11.13;76.99;96143.34;4987371;28;20448;-70
2024/03/18 03:22:44;;;;;;;7.57;6.43;;;;;;;11.15;76.80;96140.59;4986901;28;20423;-72
2024/03/18 03:25:10;;;;;;;12.70;7.50;;;;;;;11.22;76.96;96149.91;4987018;28;20420;-71
2024/03/18 03:27:36;;;;;;;10.33;7.30;;;;;;;11.28;76.44;96144.31;4986696;28;20813;-71
2024/03/18 03:30:02;;;;;;;12.07;7.57;;;;;;;11.23;76.07;96152.44;4987059;28;20204;-69
2024/03/18 03:32:28;;;;;;;10.30;7.80;;;;;;;11.25;76.54;96135.78;4986460;28;20423;-71
2024/03/18 03:34:53;;;;;;;10.60;7.27;;;;;;;11.25;76.91;96130.50;4986820;28;20416;-71
2024/03/18 03:37:19;;;;;;;9.60;7.70;;;;;;;11.22;76.61;96135.00;4986946;28;20204;-71
2024/03/18 03:39:44;;;;;;;7.70;7.00;;;;;;;11.22;76.30;96131.53;4987312;28;20208;-71
2024/03/18 03:42:10;;;;;;;9.90;6.60;;;;;;;11.19;76.19;96131.66;4986684;28;20176;-70
2024/03/18 03:44:35;;;;;;;11.03;6.80;;;;;;;11.19;76.33;96131.66;4986716;28;20180;-71
2024/03/18 03:47:01;;;;;;;9.30;7.23;;;;;;;11.16;76.52;96132.66;4986905;28;20196;-69
2024/03/18 03:49:28;;;;;;;11.33;7.47;;;;;;;11.12;76.37;96139.00;4986612;28;20276;-71
2024/03/18 03:51:54;;;;;;;11.40;7.30;;;;;;;11.10;77.14;96140.88;4986459;28;20208;-72
2024/03/18 03:54:19;;;;;;;9.70;7.70;;;;;;;11.10;77.78;96142.63;4986340;28;21150;-70
2024/03/18 03:56:44;;;;;;;14.13;9.40;;;;;;;11.13;76.72;96132.84;4986649;28;20205;-71
2024/03/18 03:59:10;;;;;;;8.60;7.70;;;;;;;11.14;77.71;96126.63;4986392;28;20211;-70
2024/03/18 04:01:35;;;;;;;9.67;7.90;;;;;;;11.10;77.30;96121.63;4987006;28;20212;-71
2024/03/18 04:04:00;;;;;;;8.53;7.40;;;;;;;10.96;78.02;96131.06;4986524;28;20184;-71
2024/03/18 04:06:26;;;;;;;7.80;7.00;;;;;;;10.95;77.86;96128.50;4986605;28;20285;-72
2024/03/18 04:08:52;;;;;;;12.37;8.03;;;;;;;11.18;77.23;96128.19;4986533;28;20712;-71
2024/03/18 04:11:17;;;;;;;8.60;6.90;;;;;;;11.13;76.63;96129.34;4986867;28;20184;-70
2024/03/18 04:13:43;;;;;;;11.00;8.00;;;;;;;11.09;77.17;96125.19;4986528;28;20177;-71
2024/03/18 04:16:09;;;;;;;10.97;7.30;;;;;;;11.11;77.23;96129.44;4986599;28;20541;-71
2024/03/18 04:18:35;;;;;;;11.00;7.00;;;;;;;11.11;77.00;96131.22;5004074;28;20212;-71
2024/03/18 04:21:03;;;;;;;11.37;7.73;;;;;;;11.06;77.55;96125.34;5011234;28;20829;-71
2024/03/18 04:23:35;;;;;;;8.60;6.97;;;;;;;11.06;77.27;96123.56;5010189;28;20165;-71
2024/03/18 04:26:06;;;;;;;11.27;7.60;;;;;;;11.12;77.29;96117.13;5011928;28;20400;-71
2024/03/18 04:28:35;;;;;;;13.03;8.23;;;;;;;11.06;77.52;96117.47;4997053;28;20945;-71
2024/03/18 04:31:05;;;;;;;8.97;7.40;;;;;;;11.02;77.35;96103.63;4988303;28;20416;-70
2024/03/18 04:33:32;;;;;;;7.97;7.20;;;;;;;11.05;77.09;96110.50;4986904;28;20412;-70
2024/03/18 04:35:57;;;;;;;12.97;10.03;;;;;;;11.03;77.77;96105.31;4987283;28;20416;-70
2024/03/18 04:38:22;;;;;;;11.23;7.83;;;;;;;10.98;77.68;96102.94;4987126;28;20996;-69
2024/03/18 04:40:48;;;;;;;11.10;7.53;;;;;;;10.99;76.93;96102.00;4986739;28;20179;-71
2024/03/18 04:43:13;;;;;;;9.53;7.87;;;;;;;11.02;77.85;96095.75;4986527;28;20176;-70
2024/03/18 04:45:39;;;;;;;9.20;7.93;;;;;;;11.06;77.11;96085.97;4988890;28;20196;-70
2024/03/18 04:48:05;;;;;;;9.57;7.23;;;;;;;11.02;77.30;96082.63;4990209;28;20192;-71
2024/03/18 04:50:31;;;;;;;8.33;7.43;;;;;;;11.06;77.19;96081.53;4990079;28;20200;-71
2024/03/18 04:52:56;;;;;;;9.87;7.93;;;;;;;10.87;77.79;96076.38;4988327;28;21228;-71
2024/03/18 04:55:22;;;;;;;8.77;7.20;;;;;;;10.72;78.43;96071.88;4989865;28;20227;-71
2024/03/18 04:57:55;;;;;;;9.10;7.37;;;;;;;10.31;80.45;96077.38;4989752;28;20201;-71
2024/03/18 05:00:24;;;;;;;10.70;7.40;;;;;;;10.21;80.96;96082.19;4989785;28;20177;-70
2024/03/18 05:02:51;;;;;;;15.20;7.80;;;;;;;10.38;80.76;96069.13;4989448;28;20416;-71
2024/03/18 05:05:17;;;;;;;8.27;7.43;;;;;;;10.37;80.43;96067.44;4989529;28;20483;-70
2024/03/18 05:07:43;;;;;;;9.20;8.10;;;;;;;10.69;78.89;96072.88;4989748;28;20431;-69
2024/03/18 05:10:10;;;;;;;8.33;7.53;;;;;;;10.69;78.97;96070.25;4989466;28;20868;-72
2024/03/18 05:12:37;;;;;;;9.17;7.67;;;;;;;10.76;78.32;96066.41;4988460;28;20408;-71
2024/03/18 05:15:03;;;;;;;9.93;7.50;;;;;;;10.80;78.45;96067.94;4989225;28;20415;-70
2024/03/18 05:17:29;;;;;;;10.30;7.50;;;;;;;10.88;78.06;96074.59;4988470;28;20451;-70
2024/03/18 05:19:55;;;;;;;19.53;9.03;;;;;;;11.00;77.58;96069.56;4988619;28;20482;-71
2024/03/18 05:22:21;;;;;;;16.67;7.83;;;;;;;11.02;77.78;96069.50;4989085;28;20173;-71
2024/03/18 05:24:47;;;;;;;13.50;7.90;;;;;;;11.05;77.54;96071.09;4988299;28;20404;-70
2024/03/18 05:27:14;;;;;;;11.53;7.30;;;;;;;10.90;78.03;96065.72;4988849;28;20796;-70
2024/03/18 05:29:39;;;;;;;10.57;7.20;;;;;;;10.92;78.59;96071.75;4988973;28;20492;-71
2024/03/18 05:32:13;;;;;;;14.70;9.37;;;;;;;10.94;77.90;96067.25;4988638;28;20503;-70
2024/03/18 05:34:40;;;;;;;10.83;7.50;;;;;;;10.95;77.55;96065.47;4988369;28;20762;-70
2024/03/18 05:37:06;;;;;;;9.50;7.17;;;;;;;10.93;77.83;96059.44;4988043;28;20450;-71
2024/03/18 05:39:32;;;;;;;10.37;7.70;;;;;;;10.83;78.40;96060.84;4988482;28;20416;-70
2024/03/18 05:41:58;;;;;;;8.67;7.73;;;;;;;10.76;78.42;96055.91;4988417;28;20792;-70
2024/03/18 05:44:24;;;;;;;8.40;7.60;;;;;;;10.83;78.61;96051.19;4981404;28;20420;-69
2024/03/18 05:46:49;;;;;;;9.37;7.23;;;;;;;10.87;78.57;96051.91;4997176;28;20887;-70
2024/03/18 05:49:15;;;;;;;10.83;7.60;;;;;;;10.81;78.20;96067.00;4986660;28;20173;-70
2024/03/18 05:51:41;;;;;;;9.60;7.63;;;;;;;10.95;77.87;96057.59;4987717;28;20635;-69
2024/03/18 05:54:06;;;;;;;10.00;8.07;;;;;;;10.92;78.49;96069.13;4986367;28;20563;-71
2024/03/18 05:56:32;;;;;;;12.53;8.10;;;;;;;10.94;77.96;96062.00;4986720;28;20177;-71
2024/03/18 05:58:57;;;;;;;12.40;8.10;;;;;;;11.00;78.34;96056.44;4987154;28;20200;-71
2024/03/18 06:01:23;;;;;;;10.23;8.70;;;;;;;11.00;78.58;96052.97;4986577;28;20203;-71
2024/03/18 06:03:48;;;;;;;9.90;8.03;;;;;;;11.03;78.24;96052.78;4986799;28;20258;-71
2024/03/18 06:06:13;;;;;;;15.80;8.83;;;;;;;10.98;78.20;96055.69;4986854;28;20568;-70
2024/03/18 06:08:39;;;;;;;16.20;9.87;;;;;;;11.05;78.23;96044.84;4988668;28;20949;-71
2024/03/18 06:11:05;;;;;;;15.10;9.77;;;;;;;11.02;78.14;96053.75;4989242;28;20318;-71
2024/03/18 06:13:32;;;;;;;10.33;8.50;;;;;;;11.02;77.83;96054.56;4987297;28;20199;-71
2024/03/18 06:15:57;;;;;;;15.90;9.13;;;;;;;10.92;78.50;96047.28;4987967;28;20559;-70
2024/03/18 06:18:23;;;;;;;10.83;9.00;;;;;;;10.90;78.49;96054.38;4988069;28;20486;-71
2024/03/18 06:20:50;;;;;;;11.43;8.33;;;;;;;10.75;79.32;96046.34;4987406;28;20184;-70
2024/03/18 06:23:18;;;;;;;11.50;8.20;;;;;;;10.92;78.26;96053.38;4987339;28;20180;-70
2024/03/18 06:25:59;;;;;;;14.83;8.87;;;;;;;10.93;78.03;96051.56;4987468;28;20412;-71
2024/03/18 06:28:25;;;;;;;9.40;8.13;;;;;;;10.89;78.36;96045.66;4987731;28;20432;-70
2024/03/18 06:30:51;;;;;;;12.03;8.73;;;;;;;10.83;78.02;96043.31;4987028;28;20466;-70
2024/03/18 06:33:18;;;;;;;52.40;14.23;;;;;;;10.86;78.90;96043.16;4999351;28;20431;-71
2024/03/18 06:35:45;;;;;;;15.43;9.53;;;;;;;10.71;79.12;96044.78;4988769;28;20436;-71
2024/03/18 06:38:11;;;;;;;17.03;9.40;;;;;;;10.88;78.29;96041.31;4986709;28;20521;-70
2024/03/18 06:40:37;;;;;;;14.60;10.10;;;;;;;11.00;78.31;96035.44;4986587;28;20555;-71
2024/03/18 06:43:02;;;;;;;18.50;9.70;;;;;;;11.01;78.14;96036.31;4989304;28;20517;-70
2024/03/18 06:45:28;;;;;;;19.00;10.10;;;;;;;11.20;78.28;96038.81;4982330;28;20189;-70
2024/03/18 06:47:54;;;;;;;16.80;9.53;;;;;;;11.22;77.60;96037.81;4989999;28;20197;-69
2024/03/18 06:50:20;;;;;;;11.67;10.30;;;;;;;11.18;77.15;96041.50;5001242;28;20188;-70
2024/03/18 06:52:46;;;;;;;17.10;10.10;;;;;;;11.22;77.30;96043.06;4995129;28;20292;-70
2024/03/18 06:55:11;;;;;;;16.40;9.90;;;;;;;11.14;77.58;96042.59;4991870;28;20436;-69
2024/03/18 06:57:37;;;;;;;11.30;8.67;;;;;;;11.19;77.19;96037.94;4987176;28;20254;-69
2024/03/18 07:00:06;;;;;;;11.73;9.67;;;;;;;11.22;77.07;96043.06;4985337;28;20184;-72
2024/03/18 07:02:31;;;;;;;10.07;8.97;;;;;;;10.99;77.55;96039.00;4990884;28;20180;-73
2024/03/18 07:04:57;;;;;;;14.70;9.73;;;;;;;11.04;77.78;96036.13;4992328;28;20450;-70
2024/03/18 07:07:22;;;;;;;12.83;8.20;;;;;;;11.11;77.53;96044.53;4991564;28;20275;-70
2024/03/18 07:09:48;;;;;;;11.10;8.67;;;;;;;11.13;76.96;96051.41;4991320;28;20180;-70
2024/03/18 07:12:18;;;;;;;11.80;8.97;;;;;;;11.15;77.32;96049.56;4986175;28;20255;-69
2024/03/18 07:14:44;;;;;;;10.57;8.27;;;;;;;11.05;77.71;96037.81;4978214;28;22081;-70
2024/03/18 07:17:09;;;;;;;11.53;9.67;;;;;;;11.09;77.61;96039.38;4983100;28;20459;-69
2024/03/18 07:19:35;;;;;;;11.60;9.70;;;;;;;11.00;77.71;96042.47;4987510;28;20710;-69
2024/03/18 07:22:01;;;;;;;15.17;10.43;;;;;;;11.12;77.82;96049.69;4993072;28;20384;-69
2024/03/18 07:24:28;;;;;;;11.70;8.90;;;;;;;11.20;77.16;96041.44;4985071;28;20181;-70
2024/03/18 07:26:54;;;;;;;15.27;9.10;;;;;;;11.32;76.89;96040.81;4984226;28;20458;-69
2024/03/18 07:29:19;;;;;;;18.70;10.90;;;;;;;11.31;76.85;96041.72;4981039;28;20428;-70
2024/03/18 07:31:45;;;;;;;10.83;9.27;;;;;;;11.28;76.22;96041.03;4993549;28;20184;-68
2024/03/18 07:34:12;;;;;;;13.40;10.10;;;;;;;11.23;76.60;96039.50;4992695;28;20541;-68
2024/03/18 07:36:39;;;;;;;12.30;9.20;;;;;;;11.27;77.63;96039.31;4992076;28;20523;-69
2024/03/18 07:39:05;;;;;;;12.77;9.40;;;;;;;11.40;76.89;96043.00;4981913;28;20525;-69
2024/03/18 07:41:32;;;;;;;10.63;9.50;;;;;;;11.27;77.34;96041.94;4983961;28;21431;-69
2024/03/18 07:43:57;;;;;;;10.43;9.43;;;;;;;11.32;77.00;96045.22;4983508;28;20543;-69
2024/03/18 07:46:23;;;;;;;11.97;9.07;;;;;;;11.20;77.48;96044.06;4983654;28;20499;-69
2024/03/18 07:48:49;;;;;;;12.37;9.23;;;;;;;11.33;77.23;96047.75;4990138;28;20649;-68
2024/03/18 07:51:14;;;;;;;17.13;10.20;;;;;;;11.34;77.12;96041.56;4986694;28;20549;-70
2024/03/18 07:53:41;;;;;;;12.20;9.40;;;;;;;11.30;77.13;96044.44;4981520;28;20652;-69
2024/03/18 07:56:06;;;;;;;13.07;9.77;;;;;;;11.40;77.04;96045.63;4983266;28;20187;-71
2024/03/18 07:58:32;;;;;;;12.10;10.07;;;;;;;11.34;78.24;96048.59;4985400;28;20467;-70
2024/03/18 08:00:57;;;;;;;10.77;9.70;;;;;;;11.39;76.95;96043.97;4984919;28;20209;-70
2024/03/18 08:03:23;;;;;;;12.60;8.80;;;;;;;11.42;76.60;96051.66;4989528;28;20176;-70
2024/03/18 08:05:53;;;;;;;12.13;9.90;;;;;;;11.45;78.60;96047.09;4983931;28;20239;-69
2024/03/18 08:08:18;;;;;;;12.60;8.60;;;;;;;11.37;77.52;96038.78;4985481;28;20192;-69
2024/03/18 08:10:45;;;;;;;12.83;8.50;;;;;;;11.43;77.42;96042.84;4993057;28;20447;-67
2024/03/18 08:13:11;;;;;;;13.77;8.77;;;;;;;11.41;77.08;96050.00;5004417;28;20318;-69
2024/03/18 08:15:38;;;;;;;10.93;9.37;;;;;;;11.42;77.30;96046.41;5000200;28;20801;-70
2024/03/18 08:18:04;;;;;;;11.40;9.00;;;;;;;11.34;76.33;96048.59;4995008;28;20466;-67
2024/03/18 08:20:30;;;;;;;9.60;8.33;;;;;;;11.41;77.76;96050.00;4998265;28;20506;-68
2024/03/18 08:22:55;;;;;;;10.37;9.20;;;;;;;11.50;77.21;96046.84;5009157;28;20489;-69
2024/03/18 08:25:20;;;;;;;11.80;8.60;;;;;;;11.37;77.03;96049.28;5007895;28;20168;-68
2024/03/18 08:27:46;;;;;;;10.60;9.50;;;;;;;11.45;76.50;96046.25;5000997;28;20240;-69
2024/03/18 08:30:11;;;;;;;9.90;8.43;;;;;;;11.37;77.16;96043.19;5009385;28;20173;-69
2024/03/18 08:32:37;;;;;;;11.67;8.60;;;;;;;11.39;77.70;96044.81;5008816;28;20187;-68
2024/03/18 08:35:02;;;;;;;11.23;9.13;;;;;;;11.41;77.88;96052.63;5008661;28;20180;-68
2024/03/18 08:37:28;;;;;;;11.50;8.43;;;;;;;11.47;77.85;96052.28;5008401;28;20215;-69
2024/03/18 08:39:55;;;;;;;20.37;12.00;;;;;;;11.59;76.71;96043.72;5008487;28;20203;-69
2024/03/18 08:42:21;;;;;;;13.50;10.30;;;;;;;11.57;77.46;96045.59;5007992;28;20652;-70
2024/03/18 08:44:49;;;;;;;14.70;9.40;;;;;;;11.63;77.35;96033.91;5006079;28;20422;-68
2024/03/18 08:47:15;;;;;;;10.57;9.50;;;;;;;11.46;77.99;96042.69;5016937;28;20917;-68
2024/03/18 08:49:40;;;;;;;12.67;9.07;;;;;;;11.43;77.81;96040.22;5007681;28;20489;-68
2024/03/18 08:52:07;;;;;;;11.00;8.93;;;;;;;11.41;77.51;96039.47;5007160;28;20181;-68
2024/03/18 08:54:34;;;;;;;16.40;9.80;;;;;;;11.37;77.95;96040.56;5007013;28;20262;-70
2024/03/18 08:57:00;;;;;;;11.57;10.37;;;;;;;11.29;78.55;96045.34;4989827;28;20444;-70
2024/03/18 08:59:25;;;;;;;14.10;10.57;;;;;;;11.44;78.42;96040.16;4987840;28;20462;-69
2024/03/18 09:01:52;;;;;;;12.40;10.70;;;;;;;11.49;77.78;96025.91;5000157;28;20194;-69
2024/03/18 09:04:17;;;;;;;12.07;10.47;;;;;;;11.56;77.64;96027.28;4987564;28;20424;-68
2024/03/18 09:06:43;;;;;;;12.13;9.83;;;;;;;11.65;76.94;96032.91;4987718;28;20335;-70
2024/03/18 09:09:11;;;;;;;14.20;9.77;;;;;;;11.66;76.94;96029.31;4992295;28;20192;-70
2024/03/18 09:11:37;;;;;;;14.80;9.90;;;;;;;11.66;77.58;96031.94;5006521;28;20187;-68
2024/03/18 09:14:05;;;;;;;15.37;10.00;;;;;;;11.69;77.31;96024.84;4986654;28;20773;-69
2024/03/18 09:16:30;;;;;;;12.57;10.20;;;;;;;11.75;77.12;96029.78;4994544;28;20207;-70
2024/03/18 09:18:56;;;;;;;17.10;10.57;;;;;;;11.61;77.48;96022.63;4989154;28;20555;-68
2024/03/18 09:21:21;;;;;;;18.70;10.80;;;;;;;11.62;77.19;96025.19;4993837;28;20229;-69
2024/03/18 09:23:47;;;;;;;16.20;11.27;;;;;;;11.55;78.08;96029.06;4997898;28;20220;-68
2024/03/18 09:26:13;;;;;;;14.83;11.40;;;;;;;11.65;78.97;96018.91;4993846;28;20180;-70
2024/03/18 09:28:39;;;;;;;13.60;11.93;;;;;;;11.79;78.08;96018.16;4999133;28;20944;-69
2024/03/18 09:31:05;;;;;;;12.07;10.87;;;;;;;11.79;77.37;96020.78;5007837;28;20565;-68
2024/03/18 09:33:30;;;;;;;15.63;10.53;;;;;;;11.59;78.75;96020.06;4992349;28;20408;-68
2024/03/18 09:35:56;;;;;;;16.43;10.43;;;;;;;11.71;79.05;96015.94;4996121;28;20664;-69
2024/03/18 09:38:21;;;;;;;15.53;13.00;;;;;;;11.91;77.83;96022.78;4996086;28;20688;-69
2024/03/18 09:40:47;;;;;;;14.60;11.73;;;;;;;11.75;77.59;96021.88;5004195;28;20265;-70
2024/03/18 09:43:13;;;;;;;14.87;13.17;;;;;;;11.79;78.31;96019.00;4995709;28;20196;-69
2024/03/18 09:45:38;;;;;;;13.77;11.70;;;;;;;11.83;78.52;96025.81;4988365;28;20191;-69
2024/03/18 09:48:05;;;;;;;16.33;11.70;;;;;;;11.91;78.25;96019.31;5004570;28;20653;-69
2024/03/18 09:50:34;;;;;;;15.20;12.70;;;;;;;11.82;78.24;96028.50;4988349;28;20176;-69
2024/03/18 09:52:59;;;;;;;13.80;10.80;;;;;;;11.83;78.15;96027.56;5003915;28;20412;-69
2024/03/18 09:55:27;;;;;;;15.20;11.60;;;;;;;11.87;78.66;96026.50;4988016;28;20494;-68
2024/03/18 09:57:56;;;;;;;16.40;12.90;;;;;;;11.92;78.64;96032.34;4987914;28;20254;-68
2024/03/18 10:00:22;;;;;;;17.33;12.30;;;;;;;11.89;79.40;96027.25;4996333;28;21114;-68
2024/03/18 10:02:48;;;;;;;14.33;11.37;;;;;;;12.00;78.43;96038.03;5003927;28;20465;-68
2024/03/18 10:05:14;;;;;;;17.73;11.63;;;;;;;12.11;78.19;96028.69;4996509;28;20811;-69
2024/03/18 10:07:41;;;;;;;13.57;11.27;;;;;;;12.05;78.09;96041.25;4996634;28;20454;-69
2024/03/18 10:10:20;;;;;;;12.57;11.27;;;;;;;12.03;77.99;96040.50;5003626;28;20643;-69
2024/03/18 10:12:48;;;;;;;14.60;11.27;;;;;;;12.10;78.56;96034.91;4997356;28;20592;-68
2024/03/18 10:15:15;;;;;;;15.03;12.87;;;;;;;12.11;78.16;96039.22;4995035;28;20424;-69
2024/03/18 10:17:41;;;;;;;13.07;11.17;;;;;;;12.23;78.17;96039.38;4996442;28;20497;-70
2024/03/18 10:20:21;;;;;;;20.73;11.97;;;;;;;12.07;78.66;96039.41;5004080;28;20918;-69
2024/03/18 10:22:49;;;;;;;15.67;11.10;;;;;;;12.19;77.38;96043.13;4991063;28;20420;-69
2024/03/18 10:25:16;;;;;;;19.33;12.33;;;;;;;12.27;77.43;96038.28;5009209;28;20998;-69
2024/03/18 10:27:45;;;;;;;12.20;10.90;;;;;;;12.24;77.46;96032.34;5002584;28;20443;-69
2024/03/18 10:30:13;;;;;;;11.77;9.97;;;;;;;12.39;76.96;96038.53;4988491;28;20439;-68
2024/03/18 10:32:42;;;;;;;14.70;11.17;;;;;;;12.45;76.55;96043.44;4996629;28;20408;-69
2024/03/18 10:35:18;;;;;;;12.03;9.57;;;;;;;12.32;77.66;96042.44;4999987;28;20427;-68
2024/03/18 10:37:47;;;;;;;11.33;8.80;;;;;;;12.44;77.15;96041.72;5006494;28;20851;-69
2024/03/18 10:40:27;;;;;;;13.33;9.10;;;;;;;12.42;76.74;96041.81;4989947;28;20432;-66
2024/03/18 10:42:59;;;;;;;10.47;9.43;;;;;;;12.41;76.56;96044.53;4988540;28;20499;-68
2024/03/18 10:45:27;;;;;;;9.37;7.70;;;;;;;12.41;76.73;96042.75;4990387;28;20416;-69
2024/03/18 10:47:54;;;;;;;12.07;7.87;;;;;;;12.40;76.91;96048.09;4999636;28;20443;-68
2024/03/18 10:50:21;;;;;;;9.50;7.43;;;;;;;12.48;76.97;96044.09;5001881;28;20465;-68
2024/03/18 10:52:47;;;;;;;11.93;7.97;;;;;;;12.43;76.95;96051.41;4999300;28;20432;-69
2024/03/18 10:55:22;;;;;;;16.50;8.53;;;;;;;12.47;76.31;96052.94;5002699;28;20414;-67
2024/03/18 10:57:51;;;;;;;11.60;7.93;;;;;;;12.44;75.92;96047.84;5010572;28;20195;-68
2024/03/18 11:00:18;;;;;;;10.63;8.17;;;;;;;12.48;75.38;96056.41;4992174;28;20423;-68
2024/03/18 11:03:10;;;;;;;9.60;7.73;;;;;;;12.52;75.97;96050.06;4996322;28;20418;-67
2024/03/18 11:05:36;;;;;;;10.23;6.80;;;;;;;12.61;75.97;96049.50;5003733;28;20412;-68
2024/03/18 11:08:06;;;;;;;10.30;7.03;;;;;;;12.64;75.98;96056.41;4991201;28;20807;-69
2024/03/18 11:10:35;;;;;;;8.10;7.20;;;;;;;12.48;76.76;96056.41;5006836;28;20655;-70
2024/03/18 11:13:20;;;;;;;11.00;8.10;;;;;;;12.56;76.65;96059.44;4990417;28;20419;-68
2024/03/18 11:15:46;;;;;;;9.80;8.80;;;;;;;12.56;76.85;96059.44;4998413;28;20430;-67
2024/03/18 11:18:17;;;;;;;9.50;8.60;;;;;;;12.54;77.10;96060.47;4987746;28;20460;-70
2024/03/18 11:20:47;;;;;;;9.70;7.90;;;;;;;12.55;76.83;96057.75;5004939;28;20199;-69
2024/03/18 11:23:18;;;;;;;9.20;8.03;;;;;;;12.49;77.34;96056.31;5006017;28;20419;-69